sensor_id;sensor_type;location;lat;lon;timestamp;temperature;humidity
15143;DHT22;7672;50.834;6.286;2023-12-20T00:02:12;10.50;99.90
15143;DHT22;7672;50.834;6.286;2023-12-20T00:04:38;10.50;99.90
15143;DHT22;7672;50.834;6.286;2023-12-20T00:07:05;10.50;99.90
15143;DHT22;7672;50.834;6.286;2023-12-20T00:09:32;10.50;99.90
15143;DHT22;7672;50.834;6.286;2023-12-20T00:11:59;10.50;99.90
15143;DHT22;7672;50.834;6.286;2023-12-20T00:14:26;10.80;99.90
15143;DHT22;7672;50.834;6.286;2023-12-20T00:16:53;10.50;99.90
15143;DHT22;7672;50.834;6.286;2023-12-20T00:19:20;10.60;99.90
15143;DHT22;7672;50.834;6.286;2023-12-20T00:21:47;10.60;99.90
15143;DHT22;7672;50.834;6.286;2023-12-20T00:24:14;10.60;99.90
15143;DHT22;7672;50.834;6.286;2023-12-20T00:26:40;10.60;99.90
15143;DHT22;7672;50.834;6.286;2023-12-20T00:29:07;10.60;99.90
15143;DHT22;7672;50.834;6.286;2023-12-20T00:31:34;10.60;99.90
15143;DHT22;7672;50.834;6.286;2023-12-20T00:34:01;10.60;99.90
15143;DHT22;7672;50.834;6.286;2023-12-20T00:36:28;10.60;99.90
15143;DHT22;7672;50.834;6.286;2023-12-20T00:38:55;10.60;99.90
15143;DHT22;7672;50.834;6.286;2023-12-20T00:41:22;10.60;99.90
15143;DHT22;7672;50.834;6.286;2023-12-20T00:43:49;10.60;99.90
15143;DHT22;7672;50.834;6.286;2023-12-20T00:46:16;10.60;99.90
15143;DHT22;7672;50.834;6.286;2023-12-20T00:48:43;10.60;99.90
15143;DHT22;7672;50.834;6.286;2023-12-20T00:51:12;10.60;99.90
15143;DHT22;7672;50.834;6.286;2023-12-20T00:53:39;10.60;99.90
15143;DHT22;7672;50.834;6.286;2023-12-20T00:56:06;10.50;99.90
15143;DHT22;7672;50.834;6.286;2023-12-20T00:58:33;10.50;99.90
15143;DHT22;7672;50.834;6.286;2023-12-20T01:01:02;10.50;99.90
15143;DHT22;7672;50.834;6.286;2023-12-20T01:03:32;10.50;99.90
15143;DHT22;7672;50.834;6.286;2023-12-20T01:05:59;10.50;99.90
15143;DHT22;7672;50.834;6.286;2023-12-20T01:08:26;10.50;99.90
15143;DHT22;7672;50.834;6.286;2023-12-20T01:10:53;10.50;99.90
15143;DHT22;7672;50.834;6.286;2023-12-20T01:13:20;10.50;99.90
15143;DHT22;7672;50.834;6.286;2023-12-20T01:15:47;10.40;99.90
15143;DHT22;7672;50.834;6.286;2023-12-20T01:18:15;10.40;99.90
15143;DHT22;7672;50.834;6.286;2023-12-20T01:20:42;10.40;99.90
15143;DHT22;7672;50.834;6.286;2023-12-20T01:23:09;10.30;99.90
15143;DHT22;7672;50.834;6.286;2023-12-20T01:25:36;10.20;99.90
15143;DHT22;7672;50.834;6.286;2023-12-20T01:28:03;10.20;99.90
15143;DHT22;7672;50.834;6.286;2023-12-20T01:30:30;10.00;99.90
15143;DHT22;7672;50.834;6.286;2023-12-20T01:32:59;10.00;99.90
15143;DHT22;7672;50.834;6.286;2023-12-20T01:35:26;9.90;99.90
15143;DHT22;7672;50.834;6.286;2023-12-20T01:37:53;9.80;99.90
15143;DHT22;7672;50.834;6.286;2023-12-20T01:40:23;9.70;99.90
15143;DHT22;7672;50.834;6.286;2023-12-20T01:43:07;9.60;99.90
15143;DHT22;7672;50.834;6.286;2023-12-20T01:45:35;9.50;99.90
15143;DHT22;7672;50.834;6.286;2023-12-20T01:51:57;9.40;99.90
15143;DHT22;7672;50.834;6.286;2023-12-20T01:54:24;9.30;99.90
15143;DHT22;7672;50.834;6.286;2023-12-20T01:56:52;9.20;99.90
15143;DHT22;7672;50.834;6.286;2023-12-20T01:59:20;9.20;99.90
15143;DHT22;7672;50.834;6.286;2023-12-20T02:01:50;9.10;99.90
15143;DHT22;7672;50.834;6.286;2023-12-20T02:05:21;9.10;99.90
15143;DHT22;7672;50.834;6.286;2023-12-20T02:09:23;9.00;99.90
15143;DHT22;7672;50.834;6.286;2023-12-20T02:13:08;9.00;99.90
15143;DHT22;7672;50.834;6.286;2023-12-20T02:17:28;9.00;99.90
15143;DHT22;7672;50.834;6.286;2023-12-20T02:21:52;9.00;99.90
15143;DHT22;7672;50.834;6.286;2023-12-20T02:26:16;9.00;99.90
15143;DHT22;7672;50.834;6.286;2023-12-20T02:48:37;9.40;99.90
15143;DHT22;7672;50.834;6.286;2023-12-20T02:56:54;8.80;99.90
15143;DHT22;7672;50.834;6.286;2023-12-20T03:17:32;8.90;99.90
15143;DHT22;7672;50.834;6.286;2023-12-20T03:30:00;8.40;99.90
15143;DHT22;7672;50.834;6.286;2023-12-20T03:33:20;8.90;99.90
15143;DHT22;7672;50.834;6.286;2023-12-20T03:46:22;8.80;99.90
15143;DHT22;7672;50.834;6.286;2023-12-20T03:49:07;9.20;99.90
15143;DHT22;7672;50.834;6.286;2023-12-20T03:51:39;9.00;99.90
15143;DHT22;7672;50.834;6.286;2023-12-20T03:54:22;8.30;99.90
15143;DHT22;7672;50.834;6.286;2023-12-20T03:57:41;9.00;99.90
15143;DHT22;7672;50.834;6.286;2023-12-20T04:01:37;8.80;99.90
15143;DHT22;7672;50.834;6.286;2023-12-20T04:05:17;9.00;99.90
15143;DHT22;7672;50.834;6.286;2023-12-20T04:13:05;8.70;99.90
15143;DHT22;7672;50.834;6.286;2023-12-20T04:16:17;8.70;99.90
15143;DHT22;7672;50.834;6.286;2023-12-20T04:20:05;8.60;99.90
15143;DHT22;7672;50.834;6.286;2023-12-20T04:23:24;8.70;99.90
15143;DHT22;7672;50.834;6.286;2023-12-20T04:27:13;8.70;99.90
15143;DHT22;7672;50.834;6.286;2023-12-20T04:30:47;8.90;99.90
15143;DHT22;7672;50.834;6.286;2023-12-20T04:33:46;9.10;99.90
15143;DHT22;7672;50.834;6.286;2023-12-20T04:36:27;8.60;99.90
15143;DHT22;7672;50.834;6.286;2023-12-20T04:40:12;8.90;99.90
15143;DHT22;7672;50.834;6.286;2023-12-20T04:42:54;8.40;99.90
15143;DHT22;7672;50.834;6.286;2023-12-20T04:45:30;8.90;99.90
15143;DHT22;7672;50.834;6.286;2023-12-20T04:48:05;8.50;99.90
15143;DHT22;7672;50.834;6.286;2023-12-20T04:50:40;8.50;99.90
15143;DHT22;7672;50.834;6.286;2023-12-20T04:53:12;8.50;99.90
15143;DHT22;7672;50.834;6.286;2023-12-20T04:55:39;8.50;99.90
15143;DHT22;7672;50.834;6.286;2023-12-20T04:58:14;8.50;99.90
15143;DHT22;7672;50.834;6.286;2023-12-20T05:00:45;8.40;99.90
15143;DHT22;7672;50.834;6.286;2023-12-20T05:03:15;8.70;99.90
15143;DHT22;7672;50.834;6.286;2023-12-20T05:05:42;8.60;99.90
15143;DHT22;7672;50.834;6.286;2023-12-20T05:08:09;8.50;99.90
15143;DHT22;7672;50.834;6.286;2023-12-20T05:10:37;8.80;99.90
15143;DHT22;7672;50.834;6.286;2023-12-20T05:13:04;8.50;99.90
15143;DHT22;7672;50.834;6.286;2023-12-20T05:15:31;8.90;99.90
15143;DHT22;7672;50.834;6.286;2023-12-20T05:17:58;8.50;99.90
15143;DHT22;7672;50.834;6.286;2023-12-20T05:20:26;9.00;99.90
15143;DHT22;7672;50.834;6.286;2023-12-20T05:22:53;8.30;99.90
15143;DHT22;7672;50.834;6.286;2023-12-20T05:25:25;9.00;99.90
15143;DHT22;7672;50.834;6.286;2023-12-20T05:27:59;8.50;99.90
15143;DHT22;7672;50.834;6.286;2023-12-20T05:30:34;8.50;99.90
15143;DHT22;7672;50.834;6.286;2023-12-20T05:33:09;8.90;99.90
15143;DHT22;7672;50.834;6.286;2023-12-20T05:35:38;8.10;99.90
15143;DHT22;7672;50.834;6.286;2023-12-20T05:38:31;8.70;99.90
15143;DHT22;7672;50.834;6.286;2023-12-20T05:41:00;8.60;99.90
15143;DHT22;7672;50.834;6.286;2023-12-20T05:43:34;8.70;99.90
15143;DHT22;7672;50.834;6.286;2023-12-20T05:46:01;8.90;99.90
15143;DHT22;7672;50.834;6.286;2023-12-20T05:48:34;8.60;99.90
15143;DHT22;7672;50.834;6.286;2023-12-20T05:51:01;8.60;99.90
15143;DHT22;7672;50.834;6.286;2023-12-20T05:53:28;8.60;99.90
15143;DHT22;7672;50.834;6.286;2023-12-20T05:55:55;9.10;99.90
15143;DHT22;7672;50.834;6.286;2023-12-20T05:58:22;8.60;99.90
15143;DHT22;7672;50.834;6.286;2023-12-20T06:00:49;9.00;99.90
15143;DHT22;7672;50.834;6.286;2023-12-20T06:03:16;8.60;99.90
15143;DHT22;7672;50.834;6.286;2023-12-20T06:05:43;8.60;99.90
15143;DHT22;7672;50.834;6.286;2023-12-20T06:08:10;8.60;99.90
15143;DHT22;7672;50.834;6.286;2023-12-20T06:10:37;8.70;99.90
15143;DHT22;7672;50.834;6.286;2023-12-20T06:13:04;8.70;99.90
15143;DHT22;7672;50.834;6.286;2023-12-20T06:15:33;8.70;99.90
15143;DHT22;7672;50.834;6.286;2023-12-20T06:18:00;8.70;99.90
15143;DHT22;7672;50.834;6.286;2023-12-20T06:20:27;8.70;99.90
15143;DHT22;7672;50.834;6.286;2023-12-20T06:22:54;8.70;99.90
15143;DHT22;7672;50.834;6.286;2023-12-20T06:25:20;8.70;99.90
15143;DHT22;7672;50.834;6.286;2023-12-20T06:27:48;8.70;99.90
15143;DHT22;7672;50.834;6.286;2023-12-20T06:30:16;8.60;99.90
15143;DHT22;7672;50.834;6.286;2023-12-20T06:32:43;8.70;99.90
15143;DHT22;7672;50.834;6.286;2023-12-20T06:35:12;8.60;99.90
15143;DHT22;7672;50.834;6.286;2023-12-20T06:37:39;8.60;99.90
15143;DHT22;7672;50.834;6.286;2023-12-20T06:40:10;8.60;99.90
15143;DHT22;7672;50.834;6.286;2023-12-20T06:42:46;8.60;99.90
15143;DHT22;7672;50.834;6.286;2023-12-20T06:45:30;8.60;99.90
15143;DHT22;7672;50.834;6.286;2023-12-20T06:47:57;8.60;99.90
15143;DHT22;7672;50.834;6.286;2023-12-20T06:50:25;8.60;99.90
15143;DHT22;7672;50.834;6.286;2023-12-20T06:52:52;8.60;99.90
15143;DHT22;7672;50.834;6.286;2023-12-20T06:55:19;8.60;99.90
15143;DHT22;7672;50.834;6.286;2023-12-20T06:57:46;8.50;99.90
15143;DHT22;7672;50.834;6.286;2023-12-20T07:00:14;8.60;99.90
15143;DHT22;7672;50.834;6.286;2023-12-20T07:02:41;8.60;99.90
15143;DHT22;7672;50.834;6.286;2023-12-20T07:05:08;8.60;99.90
15143;DHT22;7672;50.834;6.286;2023-12-20T07:07:35;8.60;99.90
15143;DHT22;7672;50.834;6.286;2023-12-20T07:10:02;8.60;99.90
15143;DHT22;7672;50.834;6.286;2023-12-20T07:12:29;8.60;99.90
15143;DHT22;7672;50.834;6.286;2023-12-20T07:14:56;8.70;99.90
15143;DHT22;7672;50.834;6.286;2023-12-20T07:17:22;8.60;99.90
15143;DHT22;7672;50.834;6.286;2023-12-20T07:19:49;8.70;99.90
15143;DHT22;7672;50.834;6.286;2023-12-20T07:22:17;8.70;99.90
15143;DHT22;7672;50.834;6.286;2023-12-20T07:24:44;8.70;99.90
15143;DHT22;7672;50.834;6.286;2023-12-20T07:27:10;8.70;99.90
15143;DHT22;7672;50.834;6.286;2023-12-20T07:29:37;8.70;99.90
15143;DHT22;7672;50.834;6.286;2023-12-20T07:32:05;8.70;99.90
15143;DHT22;7672;50.834;6.286;2023-12-20T07:34:32;8.70;99.90
15143;DHT22;7672;50.834;6.286;2023-12-20T07:37:02;8.70;99.90
15143;DHT22;7672;50.834;6.286;2023-12-20T07:39:29;8.60;99.90
15143;DHT22;7672;50.834;6.286;2023-12-20T07:41:56;8.70;99.90
15143;DHT22;7672;50.834;6.286;2023-12-20T07:44:23;8.60;99.90
15143;DHT22;7672;50.834;6.286;2023-12-20T07:46:50;8.60;99.90
15143;DHT22;7672;50.834;6.286;2023-12-20T07:49:17;8.50;99.90
15143;DHT22;7672;50.834;6.286;2023-12-20T07:51:44;8.50;99.90
15143;DHT22;7672;50.834;6.286;2023-12-20T07:54:11;8.50;99.90
15143;DHT22;7672;50.834;6.286;2023-12-20T07:56:37;8.40;99.90
15143;DHT22;7672;50.834;6.286;2023-12-20T07:59:06;8.40;99.90
15143;DHT22;7672;50.834;6.286;2023-12-20T08:01:44;8.40;99.90
15143;DHT22;7672;50.834;6.286;2023-12-20T08:04:11;8.40;99.90
15143;DHT22;7672;50.834;6.286;2023-12-20T08:06:38;8.40;99.90
15143;DHT22;7672;50.834;6.286;2023-12-20T08:09:05;8.40;99.90
15143;DHT22;7672;50.834;6.286;2023-12-20T08:11:32;8.40;99.90
15143;DHT22;7672;50.834;6.286;2023-12-20T08:13:59;8.40;99.90
15143;DHT22;7672;50.834;6.286;2023-12-20T08:16:27;8.30;99.90
15143;DHT22;7672;50.834;6.286;2023-12-20T08:18:54;8.40;99.90
15143;DHT22;7672;50.834;6.286;2023-12-20T08:21:21;8.40;99.90
15143;DHT22;7672;50.834;6.286;2023-12-20T08:23:49;8.40;99.90
15143;DHT22;7672;50.834;6.286;2023-12-20T08:26:19;8.40;99.90
15143;DHT22;7672;50.834;6.286;2023-12-20T08:28:47;8.40;99.90
15143;DHT22;7672;50.834;6.286;2023-12-20T08:31:15;8.50;99.90
15143;DHT22;7672;50.834;6.286;2023-12-20T08:33:44;8.50;99.90
15143;DHT22;7672;50.834;6.286;2023-12-20T08:36:11;8.60;99.90
15143;DHT22;7672;50.834;6.286;2023-12-20T08:38:38;8.60;99.90
15143;DHT22;7672;50.834;6.286;2023-12-20T08:41:06;8.70;99.90
15143;DHT22;7672;50.834;6.286;2023-12-20T08:43:36;8.80;99.90
15143;DHT22;7672;50.834;6.286;2023-12-20T08:46:03;8.90;99.90
15143;DHT22;7672;50.834;6.286;2023-12-20T08:48:30;8.90;99.90
15143;DHT22;7672;50.834;6.286;2023-12-20T08:50:57;8.90;99.90
15143;DHT22;7672;50.834;6.286;2023-12-20T08:53:24;9.00;99.90
15143;DHT22;7672;50.834;6.286;2023-12-20T08:55:51;9.00;99.90
15143;DHT22;7672;50.834;6.286;2023-12-20T08:58:18;9.00;99.90
15143;DHT22;7672;50.834;6.286;2023-12-20T09:00:45;9.20;99.90
15143;DHT22;7672;50.834;6.286;2023-12-20T09:03:12;9.10;99.90
15143;DHT22;7672;50.834;6.286;2023-12-20T09:05:39;9.10;99.90
15143;DHT22;7672;50.834;6.286;2023-12-20T09:08:06;9.10;99.90
15143;DHT22;7672;50.834;6.286;2023-12-20T09:10:34;9.20;99.90
15143;DHT22;7672;50.834;6.286;2023-12-20T09:13:01;9.20;99.90
15143;DHT22;7672;50.834;6.286;2023-12-20T09:15:29;9.20;99.90
15143;DHT22;7672;50.834;6.286;2023-12-20T09:18:01;9.20;99.90
15143;DHT22;7672;50.834;6.286;2023-12-20T09:20:28;9.30;99.90
15143;DHT22;7672;50.834;6.286;2023-12-20T09:22:55;9.30;99.90
15143;DHT22;7672;50.834;6.286;2023-12-20T09:25:23;9.30;99.90
15143;DHT22;7672;50.834;6.286;2023-12-20T09:27:50;9.30;99.90
15143;DHT22;7672;50.834;6.286;2023-12-20T09:30:17;9.30;99.90
15143;DHT22;7672;50.834;6.286;2023-12-20T09:32:54;9.30;99.90
15143;DHT22;7672;50.834;6.286;2023-12-20T09:35:22;9.30;99.90
15143;DHT22;7672;50.834;6.286;2023-12-20T09:37:49;9.30;99.90
15143;DHT22;7672;50.834;6.286;2023-12-20T09:40:18;9.40;99.90
15143;DHT22;7672;50.834;6.286;2023-12-20T09:42:56;9.40;99.90
15143;DHT22;7672;50.834;6.286;2023-12-20T09:45:24;9.40;99.90
15143;DHT22;7672;50.834;6.286;2023-12-20T09:47:53;9.40;99.90
15143;DHT22;7672;50.834;6.286;2023-12-20T09:50:21;9.50;99.90
15143;DHT22;7672;50.834;6.286;2023-12-20T09:52:50;9.50;99.90
15143;DHT22;7672;50.834;6.286;2023-12-20T09:55:19;9.60;99.90
15143;DHT22;7672;50.834;6.286;2023-12-20T09:57:47;9.60;99.90
15143;DHT22;7672;50.834;6.286;2023-12-20T10:00:15;9.70;99.90
15143;DHT22;7672;50.834;6.286;2023-12-20T10:02:45;9.70;99.90
15143;DHT22;7672;50.834;6.286;2023-12-20T10:05:17;9.70;99.90
15143;DHT22;7672;50.834;6.286;2023-12-20T10:07:49;9.80;99.90
15143;DHT22;7672;50.834;6.286;2023-12-20T10:10:16;9.80;99.90
15143;DHT22;7672;50.834;6.286;2023-12-20T10:13:10;9.90;99.90
15143;DHT22;7672;50.834;6.286;2023-12-20T10:15:38;9.90;99.90
15143;DHT22;7672;50.834;6.286;2023-12-20T10:18:05;10.00;99.90
15143;DHT22;7672;50.834;6.286;2023-12-20T10:20:33;10.00;99.90
15143;DHT22;7672;50.834;6.286;2023-12-20T10:23:00;10.10;99.90
15143;DHT22;7672;50.834;6.286;2023-12-20T10:25:28;10.10;99.90
15143;DHT22;7672;50.834;6.286;2023-12-20T10:28:17;10.10;99.90
15143;DHT22;7672;50.834;6.286;2023-12-20T10:30:46;10.10;99.90
15143;DHT22;7672;50.834;6.286;2023-12-20T10:33:13;10.30;99.90
15143;DHT22;7672;50.834;6.286;2023-12-20T10:35:40;10.30;99.90
15143;DHT22;7672;50.834;6.286;2023-12-20T10:38:12;10.30;99.90
15143;DHT22;7672;50.834;6.286;2023-12-20T10:40:41;10.40;99.90
15143;DHT22;7672;50.834;6.286;2023-12-20T10:43:09;10.40;99.90
15143;DHT22;7672;50.834;6.286;2023-12-20T10:45:37;10.40;99.90
15143;DHT22;7672;50.834;6.286;2023-12-20T10:48:04;10.50;99.90
15143;DHT22;7672;50.834;6.286;2023-12-20T10:50:32;10.50;99.90
15143;DHT22;7672;50.834;6.286;2023-12-20T10:52:59;10.50;99.90
15143;DHT22;7672;50.834;6.286;2023-12-20T10:55:27;10.50;99.90
15143;DHT22;7672;50.834;6.286;2023-12-20T10:58:08;10.50;99.90
15143;DHT22;7672;50.834;6.286;2023-12-20T11:00:39;10.60;99.90
15143;DHT22;7672;50.834;6.286;2023-12-20T11:03:11;10.60;99.90
15143;DHT22;7672;50.834;6.286;2023-12-20T11:05:54;10.60;99.90
15143;DHT22;7672;50.834;6.286;2023-12-20T11:11:51;10.60;99.90
15143;DHT22;7672;50.834;6.286;2023-12-20T11:14:07;10.60;99.90
15143;DHT22;7672;50.834;6.286;2023-12-20T11:16:38;10.60;99.90
15143;DHT22;7672;50.834;6.286;2023-12-20T11:19:18;10.60;99.90
15143;DHT22;7672;50.834;6.286;2023-12-20T11:21:46;10.60;99.90
15143;DHT22;7672;50.834;6.286;2023-12-20T11:24:13;10.60;99.90
15143;DHT22;7672;50.834;6.286;2023-12-20T11:26:47;10.60;99.90
15143;DHT22;7672;50.834;6.286;2023-12-20T11:29:35;10.60;99.90
15143;DHT22;7672;50.834;6.286;2023-12-20T11:32:03;10.60;99.90
15143;DHT22;7672;50.834;6.286;2023-12-20T11:34:32;10.60;99.90
15143;DHT22;7672;50.834;6.286;2023-12-20T11:37:02;10.60;99.90
15143;DHT22;7672;50.834;6.286;2023-12-20T11:39:30;10.60;99.90
15143;DHT22;7672;50.834;6.286;2023-12-20T11:42:04;10.60;99.90
15143;DHT22;7672;50.834;6.286;2023-12-20T11:44:32;10.60;99.90
15143;DHT22;7672;50.834;6.286;2023-12-20T11:46:59;10.60;99.90
15143;DHT22;7672;50.834;6.286;2023-12-20T11:49:26;10.90;99.90
15143;DHT22;7672;50.834;6.286;2023-12-20T11:51:56;10.90;99.90
15143;DHT22;7672;50.834;6.286;2023-12-20T11:54:23;10.60;99.90
15143;DHT22;7672;50.834;6.286;2023-12-20T11:56:50;10.60;99.90
15143;DHT22;7672;50.834;6.286;2023-12-20T11:59:17;11.10;99.90
15143;DHT22;7672;50.834;6.286;2023-12-20T12:01:50;10.60;99.90
15143;DHT22;7672;50.834;6.286;2023-12-20T12:04:19;10.60;99.90
15143;DHT22;7672;50.834;6.286;2023-12-20T12:06:46;10.60;99.90
15143;DHT22;7672;50.834;6.286;2023-12-20T12:09:14;10.60;99.90
15143;DHT22;7672;50.834;6.286;2023-12-20T12:11:42;10.60;99.90
15143;DHT22;7672;50.834;6.286;2023-12-20T12:14:09;10.70;99.90
15143;DHT22;7672;50.834;6.286;2023-12-20T12:16:37;10.70;99.90
15143;DHT22;7672;50.834;6.286;2023-12-20T12:19:04;10.70;99.90
15143;DHT22;7672;50.834;6.286;2023-12-20T12:21:31;10.70;99.90
15143;DHT22;7672;50.834;6.286;2023-12-20T12:24:07;10.70;99.90
15143;DHT22;7672;50.834;6.286;2023-12-20T12:26:34;10.70;99.90
15143;DHT22;7672;50.834;6.286;2023-12-20T12:29:02;10.30;99.90
15143;DHT22;7672;50.834;6.286;2023-12-20T12:31:30;11.00;99.90
15143;DHT22;7672;50.834;6.286;2023-12-20T12:33:57;10.60;99.90
15143;DHT22;7672;50.834;6.286;2023-12-20T12:36:24;10.60;99.90
15143;DHT22;7672;50.834;6.286;2023-12-20T12:38:51;10.60;99.90
15143;DHT22;7672;50.834;6.286;2023-12-20T12:41:18;10.60;99.90
15143;DHT22;7672;50.834;6.286;2023-12-20T12:43:45;10.70;99.90
15143;DHT22;7672;50.834;6.286;2023-12-20T12:46:12;10.60;99.90
15143;DHT22;7672;50.834;6.286;2023-12-20T12:48:39;10.60;99.90
15143;DHT22;7672;50.834;6.286;2023-12-20T12:51:11;10.60;99.90
15143;DHT22;7672;50.834;6.286;2023-12-20T12:53:40;10.60;99.90
15143;DHT22;7672;50.834;6.286;2023-12-20T12:56:07;10.60;99.90
15143;DHT22;7672;50.834;6.286;2023-12-20T12:58:34;10.60;99.90
15143;DHT22;7672;50.834;6.286;2023-12-20T13:01:01;10.60;99.90
15143;DHT22;7672;50.834;6.286;2023-12-20T13:03:30;10.70;99.90
15143;DHT22;7672;50.834;6.286;2023-12-20T13:05:57;10.60;99.90
15143;DHT22;7672;50.834;6.286;2023-12-20T13:08:24;10.60;99.90
15143;DHT22;7672;50.834;6.286;2023-12-20T13:10:51;10.60;99.90
15143;DHT22;7672;50.834;6.286;2023-12-20T13:13:18;10.60;99.90
15143;DHT22;7672;50.834;6.286;2023-12-20T13:15:45;10.50;99.90
15143;DHT22;7672;50.834;6.286;2023-12-20T13:18:19;10.50;99.90
15143;DHT22;7672;50.834;6.286;2023-12-20T13:20:47;10.50;99.90
15143;DHT22;7672;50.834;6.286;2023-12-20T13:23:14;10.50;99.90
15143;DHT22;7672;50.834;6.286;2023-12-20T13:25:41;10.50;99.90
15143;DHT22;7672;50.834;6.286;2023-12-20T13:28:08;10.50;99.90
15143;DHT22;7672;50.834;6.286;2023-12-20T13:30:35;10.50;99.90
15143;DHT22;7672;50.834;6.286;2023-12-20T13:33:02;10.50;99.90
15143;DHT22;7672;50.834;6.286;2023-12-20T13:35:29;10.50;99.90
15143;DHT22;7672;50.834;6.286;2023-12-20T13:37:57;10.50;99.90
15143;DHT22;7672;50.834;6.286;2023-12-20T13:40:24;10.50;99.90
15143;DHT22;7672;50.834;6.286;2023-12-20T13:42:51;10.50;99.90
15143;DHT22;7672;50.834;6.286;2023-12-20T13:45:18;10.50;99.90
15143;DHT22;7672;50.834;6.286;2023-12-20T13:47:45;10.50;99.90
15143;DHT22;7672;50.834;6.286;2023-12-20T13:50:13;10.50;99.90
15143;DHT22;7672;50.834;6.286;2023-12-20T13:52:40;10.50;99.90
15143;DHT22;7672;50.834;6.286;2023-12-20T13:55:07;10.50;99.90
15143;DHT22;7672;50.834;6.286;2023-12-20T13:57:35;10.50;99.90
15143;DHT22;7672;50.834;6.286;2023-12-20T14:00:20;10.50;99.90
15143;DHT22;7672;50.834;6.286;2023-12-20T14:02:47;10.50;99.90
15143;DHT22;7672;50.834;6.286;2023-12-20T14:05:16;10.50;99.90
15143;DHT22;7672;50.834;6.286;2023-12-20T14:07:45;10.50;99.90
15143;DHT22;7672;50.834;6.286;2023-12-20T14:10:13;10.50;99.90
15143;DHT22;7672;50.834;6.286;2023-12-20T14:12:40;10.50;99.90
15143;DHT22;7672;50.834;6.286;2023-12-20T14:15:08;10.50;99.90
15143;DHT22;7672;50.834;6.286;2023-12-20T14:17:38;10.50;99.90
15143;DHT22;7672;50.834;6.286;2023-12-20T14:20:06;10.50;99.90
15143;DHT22;7672;50.834;6.286;2023-12-20T14:22:34;10.50;99.90
15143;DHT22;7672;50.834;6.286;2023-12-20T14:25:02;10.50;99.90
15143;DHT22;7672;50.834;6.286;2023-12-20T14:27:29;10.50;99.90
15143;DHT22;7672;50.834;6.286;2023-12-20T14:29:56;10.50;99.90
15143;DHT22;7672;50.834;6.286;2023-12-20T14:32:24;10.50;99.90
15143;DHT22;7672;50.834;6.286;2023-12-20T14:34:53;10.50;99.90
15143;DHT22;7672;50.834;6.286;2023-12-20T14:37:21;10.50;99.90
15143;DHT22;7672;50.834;6.286;2023-12-20T14:39:49;10.50;99.90
15143;DHT22;7672;50.834;6.286;2023-12-20T14:42:16;10.50;99.90
15143;DHT22;7672;50.834;6.286;2023-12-20T14:44:43;10.50;99.90
15143;DHT22;7672;50.834;6.286;2023-12-20T14:47:10;10.50;99.90
15143;DHT22;7672;50.834;6.286;2023-12-20T14:49:38;10.50;99.90
15143;DHT22;7672;50.834;6.286;2023-12-20T14:52:05;10.50;99.90
15143;DHT22;7672;50.834;6.286;2023-12-20T14:54:32;10.50;99.90
15143;DHT22;7672;50.834;6.286;2023-12-20T14:56:59;10.60;99.90
15143;DHT22;7672;50.834;6.286;2023-12-20T14:59:31;10.50;99.90
15143;DHT22;7672;50.834;6.286;2023-12-20T15:01:58;10.50;99.90
15143;DHT22;7672;50.834;6.286;2023-12-20T15:04:26;10.50;99.90
15143;DHT22;7672;50.834;6.286;2023-12-20T15:06:56;10.40;99.90
15143;DHT22;7672;50.834;6.286;2023-12-20T15:09:23;10.40;99.90
15143;DHT22;7672;50.834;6.286;2023-12-20T15:11:51;10.40;99.90
15143;DHT22;7672;50.834;6.286;2023-12-20T15:14:17;10.40;99.90
15143;DHT22;7672;50.834;6.286;2023-12-20T15:16:46;10.40;99.90
15143;DHT22;7672;50.834;6.286;2023-12-20T15:19:16;10.40;99.90
15143;DHT22;7672;50.834;6.286;2023-12-20T15:21:43;10.40;99.90
15143;DHT22;7672;50.834;6.286;2023-12-20T15:24:14;10.40;99.90
15143;DHT22;7672;50.834;6.286;2023-12-20T15:26:42;10.40;99.90
15143;DHT22;7672;50.834;6.286;2023-12-20T15:29:10;10.30;99.90
15143;DHT22;7672;50.834;6.286;2023-12-20T15:31:45;10.30;99.90
15143;DHT22;7672;50.834;6.286;2023-12-20T15:34:13;10.30;99.90
15143;DHT22;7672;50.834;6.286;2023-12-20T15:36:41;10.30;99.90
15143;DHT22;7672;50.834;6.286;2023-12-20T15:39:08;10.30;99.90
15143;DHT22;7672;50.834;6.286;2023-12-20T15:41:35;10.30;99.90
15143;DHT22;7672;50.834;6.286;2023-12-20T15:44:05;10.20;99.90
15143;DHT22;7672;50.834;6.286;2023-12-20T15:46:32;10.20;99.90
15143;DHT22;7672;50.834;6.286;2023-12-20T15:49:00;10.20;99.90
15143;DHT22;7672;50.834;6.286;2023-12-20T15:51:27;10.20;99.90
15143;DHT22;7672;50.834;6.286;2023-12-20T15:53:54;10.20;99.90
15143;DHT22;7672;50.834;6.286;2023-12-20T15:56:21;10.20;99.90
15143;DHT22;7672;50.834;6.286;2023-12-20T15:58:48;10.20;99.90
15143;DHT22;7672;50.834;6.286;2023-12-20T16:01:15;10.20;99.90
15143;DHT22;7672;50.834;6.286;2023-12-20T16:03:42;10.20;99.90
15143;DHT22;7672;50.834;6.286;2023-12-20T16:06:19;10.20;99.90
15143;DHT22;7672;50.834;6.286;2023-12-20T16:08:48;10.20;99.90
15143;DHT22;7672;50.834;6.286;2023-12-20T16:11:15;10.20;99.90
15143;DHT22;7672;50.834;6.286;2023-12-20T16:13:42;10.20;99.90
15143;DHT22;7672;50.834;6.286;2023-12-20T16:16:09;10.20;99.90
15143;DHT22;7672;50.834;6.286;2023-12-20T16:18:36;10.20;99.90
15143;DHT22;7672;50.834;6.286;2023-12-20T16:21:04;10.20;99.90
15143;DHT22;7672;50.834;6.286;2023-12-20T16:23:31;10.20;99.90
15143;DHT22;7672;50.834;6.286;2023-12-20T16:25:58;10.20;99.90
15143;DHT22;7672;50.834;6.286;2023-12-20T16:28:26;10.20;99.90
15143;DHT22;7672;50.834;6.286;2023-12-20T16:30:53;10.20;99.90
15143;DHT22;7672;50.834;6.286;2023-12-20T16:33:22;10.20;99.90
15143;DHT22;7672;50.834;6.286;2023-12-20T16:35:49;10.20;99.90
15143;DHT22;7672;50.834;6.286;2023-12-20T16:38:16;10.20;99.90
15143;DHT22;7672;50.834;6.286;2023-12-20T16:40:43;10.20;99.90
15143;DHT22;7672;50.834;6.286;2023-12-20T16:43:11;10.20;99.90
15143;DHT22;7672;50.834;6.286;2023-12-20T16:45:38;10.20;99.90
15143;DHT22;7672;50.834;6.286;2023-12-20T16:48:05;10.20;99.90
15143;DHT22;7672;50.834;6.286;2023-12-20T16:50:32;10.20;99.90
15143;DHT22;7672;50.834;6.286;2023-12-20T16:52:59;10.20;99.90
15143;DHT22;7672;50.834;6.286;2023-12-20T16:55:26;10.20;99.90
15143;DHT22;7672;50.834;6.286;2023-12-20T16:57:53;10.30;99.90
15143;DHT22;7672;50.834;6.286;2023-12-20T17:00:20;10.30;99.90
15143;DHT22;7672;50.834;6.286;2023-12-20T17:02:49;10.30;99.90
15143;DHT22;7672;50.834;6.286;2023-12-20T17:05:17;10.30;99.90
15143;DHT22;7672;50.834;6.286;2023-12-20T17:07:45;10.30;99.90
15143;DHT22;7672;50.834;6.286;2023-12-20T17:10:12;10.30;99.90
15143;DHT22;7672;50.834;6.286;2023-12-20T17:12:39;10.30;99.90
15143;DHT22;7672;50.834;6.286;2023-12-20T17:15:06;10.30;99.90
15143;DHT22;7672;50.834;6.286;2023-12-20T17:17:33;10.30;99.90
15143;DHT22;7672;50.834;6.286;2023-12-20T17:20:00;10.40;99.90
15143;DHT22;7672;50.834;6.286;2023-12-20T17:22:28;10.40;99.90
15143;DHT22;7672;50.834;6.286;2023-12-20T17:24:55;10.40;99.90
15143;DHT22;7672;50.834;6.286;2023-12-20T17:27:22;10.40;99.90
15143;DHT22;7672;50.834;6.286;2023-12-20T17:29:49;10.40;99.90
15143;DHT22;7672;50.834;6.286;2023-12-20T17:32:15;10.40;99.90
15143;DHT22;7672;50.834;6.286;2023-12-20T17:34:42;10.50;99.90
15143;DHT22;7672;50.834;6.286;2023-12-20T17:37:09;10.50;99.90
15143;DHT22;7672;50.834;6.286;2023-12-20T17:39:36;10.50;99.90